createdAt,value
2022-11-07T00:01:27.053Z,1.30
2022-11-07T00:04:50.807Z,1.10
2022-11-07T00:08:14.162Z,1.10
2022-11-07T00:11:39.187Z,0.80
2022-11-07T00:15:03.917Z,1.10
2022-11-07T00:18:27.646Z,1.10
2022-11-07T00:21:51.704Z,0.87
2022-11-07T00:25:15.564Z,1.00
2022-11-07T00:28:43.456Z,1.10
2022-11-07T00:32:07.468Z,0.90
2022-11-07T00:35:31.194Z,0.90
2022-11-07T00:38:55.688Z,0.97
2022-11-07T00:42:19.454Z,0.80
2022-11-07T00:45:44.512Z,0.80
2022-11-07T00:49:08.257Z,0.90
2022-11-07T00:52:31.951Z,0.90
2022-11-07T00:55:55.665Z,0.80
2022-11-07T00:59:19.511Z,0.90
2022-11-07T01:02:44.694Z,0.90
2022-11-07T01:06:08.356Z,0.80
2022-11-07T01:09:31.715Z,0.90
2022-11-07T01:12:55.505Z,0.80
2022-11-07T01:16:19.183Z,0.90
2022-11-07T01:19:43.896Z,0.80
2022-11-07T01:23:07.703Z,0.80
2022-11-07T01:26:31.603Z,0.80
2022-11-07T01:29:55.289Z,0.80
2022-11-07T01:33:19.008Z,0.70
2022-11-07T01:36:43.791Z,0.90
2022-11-07T01:40:09.202Z,0.77
2022-11-07T01:43:53.923Z,0.70
2022-11-07T01:47:17.856Z,1.00
2022-11-07T01:50:41.616Z,0.70
2022-11-07T01:54:07.929Z,0.80
2022-11-07T01:57:36.309Z,0.80
2022-11-07T02:01:00.141Z,0.70
2022-11-07T02:04:28.496Z,0.80
2022-11-07T02:07:52.333Z,0.80
2022-11-07T02:11:19.153Z,0.73
2022-11-07T02:14:43.797Z,0.80
2022-11-07T02:18:07.682Z,0.90
2022-11-07T02:21:37.911Z,0.90
2022-11-07T02:25:07.937Z,0.73
2022-11-07T02:28:33.988Z,0.90
2022-11-07T02:32:06.267Z,0.60
2022-11-07T02:35:42.094Z,0.70
2022-11-07T02:39:06.908Z,1.10
2022-11-07T02:42:44.204Z,0.80
2022-11-07T02:46:12.965Z,0.80
2022-11-07T02:49:36.644Z,1.07
2022-11-07T02:53:00.460Z,0.60
2022-11-07T02:56:26.798Z,0.80
2022-11-07T02:59:51.529Z,0.90
2022-11-07T03:03:15.682Z,0.80
2022-11-07T03:06:39.344Z,1.00
2022-11-07T03:10:03.039Z,0.83
2022-11-07T03:13:27.184Z,0.83
2022-11-07T03:16:51.861Z,0.80
2022-11-07T03:20:15.550Z,0.80
2022-11-07T03:23:39.286Z,0.80
2022-11-07T03:27:02.704Z,0.90
2022-11-07T03:30:26.155Z,0.70
2022-11-07T03:33:50.858Z,0.80
2022-11-07T03:37:15.099Z,0.80
2022-11-07T03:40:39.049Z,0.93
2022-11-07T03:44:02.717Z,0.70
2022-11-07T03:47:26.440Z,0.80
2022-11-07T03:50:51.487Z,0.63
2022-11-07T03:54:15.196Z,1.10
2022-11-07T03:57:39.059Z,0.80
2022-11-07T04:01:02.960Z,0.80
2022-11-07T04:04:26.843Z,0.80
2022-11-07T04:07:51.876Z,1.00
2022-11-07T04:11:35.604Z,0.80
2022-11-07T04:15:17.064Z,0.70
2022-11-07T04:18:40.768Z,0.70
2022-11-07T04:22:04.154Z,0.70
2022-11-07T04:25:46.836Z,0.90
2022-11-07T04:29:10.515Z,0.80
2022-11-07T04:32:33.888Z,0.90
2022-11-07T04:35:57.698Z,0.90
2022-11-07T04:39:21.383Z,0.70
2022-11-07T04:42:47.633Z,0.80
2022-11-07T04:46:10.987Z,0.60
2022-11-07T04:49:34.324Z,0.80
2022-11-07T04:52:57.952Z,0.77
2022-11-07T04:56:21.367Z,0.70
2022-11-07T04:59:46.347Z,0.80
2022-11-07T05:03:10.307Z,0.60
2022-11-07T05:06:37.039Z,0.70
2022-11-07T05:10:00.479Z,0.60
2022-11-07T05:13:23.929Z,0.70
2022-11-07T05:16:51.779Z,0.80
2022-11-07T05:20:29.239Z,0.77
2022-11-07T05:23:52.656Z,0.80
2022-11-07T05:27:18.908Z,0.70
2022-11-07T05:30:43.664Z,0.80
2022-11-07T05:34:12.187Z,0.77
2022-11-07T05:37:37.831Z,0.73
2022-11-07T05:41:04.830Z,0.70
2022-11-07T05:44:28.603Z,0.87
2022-11-07T05:47:58.913Z,0.80
2022-11-07T05:51:24.040Z,0.70
2022-11-07T05:54:47.781Z,0.90
2022-11-07T05:58:12.519Z,1.30
2022-11-07T06:01:36.534Z,1.00
2022-11-07T06:05:00.379Z,0.90
2022-11-07T06:08:25.247Z,1.00
2022-11-07T06:11:49.110Z,1.00
2022-11-07T06:15:13.268Z,0.87
2022-11-07T06:18:41.635Z,0.90
2022-11-07T06:22:05.655Z,0.80
2022-11-07T06:25:31.264Z,0.80
2022-11-07T06:28:55.362Z,0.90
2022-11-07T06:32:19.074Z,0.90
2022-11-07T06:35:43.456Z,0.90
2022-11-07T06:39:07.451Z,0.90
2022-11-07T06:42:32.945Z,0.90
2022-11-07T06:45:56.902Z,0.80
2022-11-07T06:49:20.331Z,1.00
2022-11-07T06:52:44.091Z,0.90
2022-11-07T06:56:11.268Z,1.00
2022-11-07T06:59:36.417Z,0.70
2022-11-07T07:03:00.273Z,1.27
2022-11-07T07:06:23.809Z,0.80
2022-11-07T07:09:47.575Z,0.80
2022-11-07T07:13:12.302Z,0.90
2022-11-07T07:16:37.627Z,1.20
2022-11-07T07:20:01.481Z,0.70
2022-11-07T07:23:25.831Z,0.90
2022-11-07T07:26:49.646Z,0.80
2022-11-07T07:30:14.537Z,0.73
2022-11-07T07:33:39.754Z,0.90
2022-11-07T07:37:03.565Z,1.00
2022-11-07T07:40:27.495Z,1.17
2022-11-07T07:43:51.334Z,1.00
2022-11-07T07:47:15.151Z,1.10
2022-11-07T07:50:40.350Z,1.10
2022-11-07T07:54:04.318Z,0.80
2022-11-07T07:57:32.790Z,0.83
2022-11-07T08:00:58.443Z,0.90
2022-11-07T08:04:22.483Z,0.87
2022-11-07T08:07:49.103Z,0.80
2022-11-07T08:11:13.223Z,0.90
2022-11-07T08:14:37.093Z,0.83
2022-11-07T08:18:03.130Z,0.90
2022-11-07T08:21:29.751Z,0.73
2022-11-07T08:24:55.249Z,0.87
2022-11-07T08:28:19.618Z,1.07
2022-11-07T08:31:43.443Z,0.70
2022-11-07T08:35:07.739Z,1.00
2022-11-07T08:38:33.850Z,0.90
2022-11-07T08:41:58.729Z,1.20
2022-11-07T08:45:22.521Z,0.90
2022-11-07T08:48:46.299Z,0.80
2022-11-07T08:52:10.147Z,0.80
2022-11-07T08:55:34.371Z,1.10
2022-11-07T08:58:59.194Z,1.30
2022-11-07T09:06:07.369Z,1.00
2022-11-07T09:09:31.196Z,0.80
2022-11-07T09:12:55.015Z,0.90
2022-11-07T09:16:20.463Z,0.80
2022-11-07T09:19:44.251Z,0.87
2022-11-07T09:23:08.019Z,0.90
2022-11-07T09:26:31.839Z,0.77
2022-11-07T09:29:55.616Z,0.90
2022-11-07T09:33:20.786Z,0.70
2022-11-07T09:36:44.344Z,0.90
2022-11-07T09:40:18.019Z,0.80
2022-11-07T09:44:15.030Z,0.80
2022-11-07T09:47:44.739Z,0.70
2022-11-07T09:51:27.006Z,0.70
2022-11-07T09:54:55.841Z,0.80
2022-11-07T09:58:26.920Z,0.80
2022-11-07T10:01:50.843Z,0.80
2022-11-07T10:05:17.451Z,0.80
2022-11-07T10:08:51.196Z,0.80
2022-11-07T10:12:44.570Z,0.80
2022-11-07T10:16:18.940Z,0.70
2022-11-07T10:20:04.531Z,0.80
2022-11-07T10:23:43.408Z,0.87
2022-11-07T10:27:12.366Z,0.70
2022-11-07T10:30:36.516Z,0.80
2022-11-07T10:34:05.645Z,0.70
2022-11-07T10:37:29.590Z,0.80
2022-11-07T10:40:53.664Z,1.00
2022-11-07T10:44:24.141Z,0.70
2022-11-07T10:47:59.093Z,0.80
2022-11-07T10:51:33.670Z,1.10
2022-11-07T10:55:09.131Z,0.80
2022-11-07T10:58:43.973Z,0.87
2022-11-07T11:02:21.710Z,0.87
2022-11-07T11:05:47.131Z,0.80
2022-11-07T11:09:15.904Z,0.90
2022-11-07T11:12:45.847Z,0.97
2022-11-07T11:16:24.354Z,0.70
2022-11-07T11:19:53.835Z,0.70
2022-11-07T11:23:23.283Z,1.10
2022-11-07T11:26:51.214Z,0.80
2022-11-07T11:30:18.714Z,0.70
2022-11-07T11:33:48.325Z,0.83
2022-11-07T11:37:18.099Z,0.90
2022-11-07T11:40:49.325Z,0.70
2022-11-07T11:44:21.708Z,0.80
2022-11-07T11:47:53.090Z,1.00
2022-11-07T11:51:22.646Z,1.10
2022-11-07T11:54:48.482Z,0.80
2022-11-07T11:58:22.666Z,1.53
2022-11-07T12:01:56.511Z,0.90
2022-11-07T12:05:48.991Z,1.03
2022-11-07T12:09:33.964Z,0.90
2022-11-07T12:13:12.217Z,1.10
2022-11-07T12:16:42.118Z,1.03
2022-11-07T12:20:18.013Z,0.80
2022-11-07T12:23:58.947Z,0.90
2022-11-07T12:27:32.006Z,0.90
2022-11-07T12:31:08.772Z,1.40
2022-11-07T12:34:46.270Z,0.80
2022-11-07T12:38:35.503Z,0.90
2022-11-07T12:42:07.859Z,1.00
2022-11-07T12:45:48.938Z,1.03
2022-11-07T12:49:46.695Z,0.90
2022-11-07T12:53:30.005Z,0.83
2022-11-07T12:56:57.173Z,0.80
2022-11-07T13:00:29.066Z,0.90
2022-11-07T13:04:07.881Z,0.80
2022-11-07T13:07:41.434Z,0.80
2022-11-07T13:11:13.392Z,0.80
2022-11-07T13:14:41.432Z,1.10
2022-11-07T13:18:21.041Z,0.80
2022-11-07T13:21:45.287Z,0.90
2022-11-07T13:25:26.280Z,0.80
2022-11-07T13:28:58.861Z,0.80
2022-11-07T13:32:22.378Z,0.70
2022-11-07T13:35:55.984Z,0.80
2022-11-07T13:39:22.020Z,0.80
2022-11-07T13:42:49.779Z,0.80
2022-11-07T13:46:22.927Z,0.80
2022-11-07T13:49:50.135Z,0.70
2022-11-07T13:53:21.963Z,0.70
2022-11-07T13:56:52.897Z,0.77
2022-11-07T14:00:21.231Z,0.90
2022-11-07T14:03:45.139Z,1.10
2022-11-07T14:07:20.259Z,0.80
2022-11-07T14:10:50.144Z,0.80
2022-11-07T14:14:15.147Z,0.80
2022-11-07T14:17:41.057Z,0.93
2022-11-07T14:21:04.991Z,0.70
2022-11-07T14:24:32.760Z,0.73
2022-11-07T14:27:57.330Z,0.70
2022-11-07T14:31:27.428Z,0.90
2022-11-07T14:34:54.915Z,0.70
2022-11-07T14:38:22.474Z,0.80
2022-11-07T14:41:46.922Z,0.70
2022-11-07T14:45:15.805Z,0.93
2022-11-07T14:48:43.412Z,0.70
2022-11-07T14:52:16.649Z,0.80
2022-11-07T14:55:46.638Z,0.70
2022-11-07T14:59:13.991Z,0.60
2022-11-07T15:02:37.962Z,0.70
2022-11-07T15:06:02.385Z,0.80
2022-11-07T15:09:35.752Z,0.80
2022-11-07T15:13:02.463Z,0.70
2022-11-07T15:16:32.186Z,0.77
2022-11-07T15:20:02.531Z,0.70
2022-11-07T15:23:31.384Z,0.80
2022-11-07T15:27:05.127Z,0.70
2022-11-07T15:30:32.376Z,0.70
2022-11-07T15:33:57.944Z,0.70
2022-11-07T15:37:24.220Z,0.80
2022-11-07T15:40:48.319Z,0.70
2022-11-07T15:44:13.455Z,0.70
2022-11-07T15:47:37.541Z,0.80
2022-11-07T15:51:01.313Z,0.70
2022-11-07T15:54:25.077Z,0.70
2022-11-07T15:57:51.449Z,0.80
2022-11-07T16:01:16.608Z,0.67
2022-11-07T16:04:40.292Z,0.70
2022-11-07T16:08:07.345Z,0.80
2022-11-07T16:11:31.143Z,0.80
2022-11-07T16:14:59.121Z,0.70
2022-11-07T16:18:24.569Z,0.80
2022-11-07T16:21:48.913Z,0.70
2022-11-07T16:25:21.431Z,0.77
2022-11-07T16:28:46.076Z,0.90
2022-11-07T16:32:17.582Z,0.80
2022-11-07T16:35:43.089Z,0.90
2022-11-07T16:39:12.699Z,0.70
2022-11-07T16:42:37.001Z,0.80
2022-11-07T16:46:00.622Z,0.80
2022-11-07T16:49:30.695Z,0.90
2022-11-07T16:52:55.748Z,0.93
2022-11-07T16:56:29.965Z,0.73
2022-11-07T16:59:53.790Z,0.80
2022-11-07T17:03:17.503Z,0.90
2022-11-07T17:06:46.887Z,0.87
2022-11-07T17:10:17.236Z,0.80
2022-11-07T17:13:40.780Z,0.80
2022-11-07T17:17:06.932Z,0.80
2022-11-07T17:20:50.340Z,1.20
2022-11-07T17:24:15.125Z,1.20
2022-11-07T17:27:42.816Z,3.23
2022-11-07T17:31:06.622Z,4.33
2022-11-07T17:34:30.105Z,2.77
2022-11-07T17:37:53.558Z,1.83
2022-11-07T17:41:18.487Z,1.57
2022-11-07T17:44:43.468Z,1.70
2022-11-07T17:48:07.592Z,1.70
2022-11-07T17:51:31.408Z,1.30
2022-11-07T17:54:55.003Z,1.53
2022-11-07T17:58:18.689Z,1.57
2022-11-07T18:01:44.666Z,1.40
2022-11-07T18:05:13.844Z,1.57
2022-11-07T18:08:51.715Z,1.60
2022-11-07T18:12:15.530Z,1.43
2022-11-07T18:15:39.212Z,1.90
2022-11-07T18:19:06.003Z,1.30
2022-11-07T18:22:29.832Z,1.20
2022-11-07T18:26:04.709Z,1.20
2022-11-07T18:29:28.352Z,1.70
2022-11-07T18:32:52.465Z,1.40
2022-11-07T18:36:21.086Z,1.40
2022-11-07T18:39:47.344Z,1.57
2022-11-07T18:43:12.042Z,1.60
2022-11-07T18:46:36.114Z,1.50
2022-11-07T18:49:59.710Z,1.37
2022-11-07T18:53:25.351Z,1.53
2022-11-07T18:56:49.013Z,1.30
2022-11-07T19:00:14.929Z,1.23
2022-11-07T19:03:39.154Z,1.33
2022-11-07T19:07:02.822Z,1.20
2022-11-07T19:10:27.672Z,1.67
2022-11-07T19:13:51.351Z,1.70
2022-11-07T19:17:15.203Z,1.27
2022-11-07T19:20:40.357Z,1.50
2022-11-07T19:24:04.095Z,1.50
2022-11-07T19:27:29.984Z,1.40
2022-11-07T19:30:53.815Z,1.97
2022-11-07T19:34:18.092Z,1.50
2022-11-07T19:37:41.568Z,1.90
2022-11-07T19:41:06.944Z,2.20
2022-11-07T19:44:34.000Z,1.97
2022-11-07T19:47:57.536Z,1.50
2022-11-07T19:51:23.451Z,1.73
2022-11-07T19:54:50.257Z,1.40
2022-11-07T19:58:13.719Z,1.60
2022-11-07T20:01:39.634Z,1.30
2022-11-07T20:05:03.616Z,1.40
2022-11-07T20:08:27.325Z,1.50
2022-11-07T20:11:50.810Z,1.60
2022-11-07T20:15:14.751Z,1.57
2022-11-07T20:18:41.244Z,1.97
2022-11-07T20:22:04.754Z,2.57
2022-11-07T20:25:29.261Z,2.43
2022-11-07T20:28:54.340Z,2.37
2022-11-07T20:32:18.097Z,2.30
2022-11-07T20:35:43.013Z,2.30
2022-11-07T20:39:07.283Z,2.40
2022-11-07T20:42:31.158Z,2.30
2022-11-07T20:45:55.044Z,2.10
2022-11-07T20:49:21.181Z,2.20
2022-11-07T20:52:45.979Z,2.00
2022-11-07T20:56:11.152Z,2.30
2022-11-07T20:59:35.291Z,2.00
2022-11-07T21:02:58.919Z,1.90
2022-11-07T21:06:22.993Z,1.80
2022-11-07T21:09:48.622Z,1.30
2022-11-07T21:13:14.163Z,2.00
2022-11-07T21:16:38.073Z,1.70
2022-11-07T21:20:01.648Z,1.60
2022-11-07T21:23:26.904Z,1.60
2022-11-07T21:26:51.751Z,1.63
2022-11-07T21:30:16.168Z,1.80
2022-11-07T21:33:42.093Z,1.65
2022-11-07T21:37:05.857Z,1.80
2022-11-07T21:40:29.379Z,2.10
2022-11-07T21:43:54.349Z,2.10
2022-11-07T21:47:17.902Z,1.87
2022-11-07T21:50:45.632Z,1.90
2022-11-07T21:54:10.055Z,2.30
2022-11-07T21:57:33.487Z,2.00
2022-11-07T22:01:03.586Z,2.03
2022-11-07T22:04:27.079Z,1.77
2022-11-07T22:07:51.212Z,1.60
2022-11-07T22:11:15.954Z,1.50
2022-11-07T22:14:39.550Z,2.20
2022-11-07T22:18:04.508Z,1.60
2022-11-07T22:21:28.282Z,1.60
2022-11-07T22:24:51.783Z,1.90
2022-11-07T22:28:15.448Z,1.70
2022-11-07T22:31:38.958Z,2.13
2022-11-07T22:35:08.961Z,2.00
2022-11-07T22:38:33.884Z,2.13
2022-11-07T22:41:57.338Z,1.80
2022-11-07T22:45:20.779Z,2.20
2022-11-07T22:48:46.198Z,2.10
2022-11-07T22:52:11.147Z,1.60
2022-11-07T22:55:37.129Z,1.70
2022-11-07T22:59:00.955Z,1.83
2022-11-07T23:02:24.630Z,1.90
2022-11-07T23:05:48.135Z,1.90
2022-11-07T23:09:15.503Z,1.70
2022-11-07T23:12:38.939Z,1.73
2022-11-07T23:16:02.547Z,1.70
2022-11-07T23:19:27.510Z,1.90
2022-11-07T23:22:50.972Z,1.70
2022-11-07T23:26:18.777Z,1.67
2022-11-07T23:29:42.540Z,2.07
2022-11-07T23:33:06.352Z,2.03
2022-11-07T23:36:29.858Z,2.47
2022-11-07T23:39:53.339Z,2.20
2022-11-07T23:43:18.103Z,2.10
2022-11-07T23:46:59.277Z,1.80
2022-11-07T23:50:40.183Z,2.50
2022-11-07T23:54:22.658Z,1.67
2022-11-07T23:58:03.662Z,2.10
